sensor_id;sensor_type;location;lat;lon;timestamp;P1;durP1;ratioP1;P2;durP2;ratioP2
10389;SDS011;5241;47.830;12.972;2022-07-09T00:00:23;6.53;;;3.17;;
10389;SDS011;5241;47.830;12.972;2022-07-09T00:02:49;5.00;;;2.67;;
10389;SDS011;5241;47.830;12.972;2022-07-09T00:05:14;4.87;;;3.33;;
10389;SDS011;5241;47.830;12.972;2022-07-09T00:07:40;4.83;;;3.33;;
10389;SDS011;5241;47.830;12.972;2022-07-09T00:10:05;4.70;;;3.07;;
10389;SDS011;5241;47.830;12.972;2022-07-09T00:12:31;9.23;;;3.20;;
10389;SDS011;5241;47.830;12.972;2022-07-09T00:14:57;6.67;;;3.10;;
10389;SDS011;5241;47.830;12.972;2022-07-09T00:17:23;4.70;;;2.93;;
10389;SDS011;5241;47.830;12.972;2022-07-09T00:19:48;4.57;;;3.53;;
10389;SDS011;5241;47.830;12.972;2022-07-09T00:22:14;5.00;;;3.20;;
10389;SDS011;5241;47.830;12.972;2022-07-09T00:24:39;5.50;;;3.40;;
10389;SDS011;5241;47.830;12.972;2022-07-09T00:27:05;4.03;;;3.10;;
10389;SDS011;5241;47.830;12.972;2022-07-09T00:29:31;4.40;;;2.77;;
10389;SDS011;5241;47.830;12.972;2022-07-09T00:31:56;5.03;;;2.93;;
10389;SDS011;5241;47.830;12.972;2022-07-09T00:34:22;6.03;;;2.90;;
10389;SDS011;5241;47.830;12.972;2022-07-09T00:36:47;3.97;;;2.20;;
10389;SDS011;5241;47.830;12.972;2022-07-09T00:39:13;6.40;;;2.40;;
10389;SDS011;5241;47.830;12.972;2022-07-09T00:41:38;4.37;;;2.40;;
10389;SDS011;5241;47.830;12.972;2022-07-09T00:44:04;4.03;;;2.30;;
10389;SDS011;5241;47.830;12.972;2022-07-09T00:46:29;3.47;;;2.50;;
10389;SDS011;5241;47.830;12.972;2022-07-09T00:48:55;3.27;;;2.63;;
10389;SDS011;5241;47.830;12.972;2022-07-09T00:51:20;4.77;;;2.73;;
10389;SDS011;5241;47.830;12.972;2022-07-09T00:53:46;4.67;;;3.10;;
10389;SDS011;5241;47.830;12.972;2022-07-09T00:56:15;4.17;;;2.50;;
10389;SDS011;5241;47.830;12.972;2022-07-09T00:58:42;3.20;;;2.20;;
10389;SDS011;5241;47.830;12.972;2022-07-09T01:01:09;5.20;;;2.87;;
10389;SDS011;5241;47.830;12.972;2022-07-09T01:03:35;3.47;;;2.30;;
10389;SDS011;5241;47.830;12.972;2022-07-09T01:06:00;6.17;;;2.60;;
10389;SDS011;5241;47.830;12.972;2022-07-09T01:08:26;4.83;;;2.53;;
10389;SDS011;5241;47.830;12.972;2022-07-09T01:10:52;4.27;;;2.50;;
10389;SDS011;5241;47.830;12.972;2022-07-09T01:13:18;5.47;;;3.13;;
10389;SDS011;5241;47.830;12.972;2022-07-09T01:15:44;4.27;;;2.60;;
10389;SDS011;5241;47.830;12.972;2022-07-09T01:18:10;7.80;;;2.67;;
10389;SDS011;5241;47.830;12.972;2022-07-09T01:20:36;4.87;;;2.57;;
10389;SDS011;5241;47.830;12.972;2022-07-09T01:23:02;5.03;;;2.90;;
10389;SDS011;5241;47.830;12.972;2022-07-09T01:25:31;5.97;;;3.40;;
10389;SDS011;5241;47.830;12.972;2022-07-09T01:28:05;7.07;;;3.67;;
10389;SDS011;5241;47.830;12.972;2022-07-09T01:30:31;4.83;;;3.27;;
10389;SDS011;5241;47.830;12.972;2022-07-09T01:32:59;5.23;;;3.00;;
10389;SDS011;5241;47.830;12.972;2022-07-09T01:35:25;6.70;;;3.43;;
10389;SDS011;5241;47.830;12.972;2022-07-09T01:37:51;6.20;;;2.93;;
10389;SDS011;5241;47.830;12.972;2022-07-09T01:40:16;4.43;;;2.90;;
10389;SDS011;5241;47.830;12.972;2022-07-09T01:42:42;4.40;;;2.80;;
10389;SDS011;5241;47.830;12.972;2022-07-09T01:45:08;5.53;;;2.83;;
10389;SDS011;5241;47.830;12.972;2022-07-09T01:47:34;3.87;;;2.80;;
10389;SDS011;5241;47.830;12.972;2022-07-09T01:49:59;5.90;;;2.70;;
10389;SDS011;5241;47.830;12.972;2022-07-09T01:52:25;4.90;;;2.53;;
10389;SDS011;5241;47.830;12.972;2022-07-09T01:54:51;6.03;;;2.40;;
10389;SDS011;5241;47.830;12.972;2022-07-09T01:57:16;4.77;;;2.63;;
10389;SDS011;5241;47.830;12.972;2022-07-09T01:59:42;4.47;;;2.23;;
10389;SDS011;5241;47.830;12.972;2022-07-09T02:02:07;3.93;;;2.20;;
10389;SDS011;5241;47.830;12.972;2022-07-09T02:04:33;6.40;;;2.43;;
10389;SDS011;5241;47.830;12.972;2022-07-09T02:06:58;3.43;;;2.20;;
10389;SDS011;5241;47.830;12.972;2022-07-09T02:09:24;3.00;;;2.20;;
10389;SDS011;5241;47.830;12.972;2022-07-09T02:11:49;3.03;;;2.20;;
10389;SDS011;5241;47.830;12.972;2022-07-09T02:14:15;3.47;;;2.10;;
10389;SDS011;5241;47.830;12.972;2022-07-09T02:16:41;4.83;;;2.27;;
10389;SDS011;5241;47.830;12.972;2022-07-09T02:19:07;5.27;;;2.73;;
10389;SDS011;5241;47.830;12.972;2022-07-09T02:21:33;5.10;;;2.40;;
10389;SDS011;5241;47.830;12.972;2022-07-09T02:23:58;4.57;;;2.53;;
10389;SDS011;5241;47.830;12.972;2022-07-09T02:26:25;3.00;;;2.40;;
10389;SDS011;5241;47.830;12.972;2022-07-09T02:28:52;6.23;;;2.80;;
10389;SDS011;5241;47.830;12.972;2022-07-09T02:31:18;6.77;;;2.40;;
10389;SDS011;5241;47.830;12.972;2022-07-09T02:33:44;9.57;;;2.90;;
10389;SDS011;5241;47.830;12.972;2022-07-09T02:36:09;4.07;;;2.40;;
10389;SDS011;5241;47.830;12.972;2022-07-09T02:38:35;5.77;;;2.57;;
10389;SDS011;5241;47.830;12.972;2022-07-09T02:41:00;5.07;;;2.50;;
10389;SDS011;5241;47.830;12.972;2022-07-09T02:43:26;4.87;;;2.63;;
10389;SDS011;5241;47.830;12.972;2022-07-09T02:45:52;4.00;;;2.70;;
10389;SDS011;5241;47.830;12.972;2022-07-09T02:48:20;8.77;;;2.70;;
10389;SDS011;5241;47.830;12.972;2022-07-09T02:50:46;4.20;;;2.60;;
10389;SDS011;5241;47.830;12.972;2022-07-09T02:53:12;3.03;;;2.57;;
10389;SDS011;5241;47.830;12.972;2022-07-09T02:55:37;2.97;;;2.40;;
10389;SDS011;5241;47.830;12.972;2022-07-09T02:58:03;2.73;;;2.23;;
10389;SDS011;5241;47.830;12.972;2022-07-09T03:00:28;3.23;;;2.20;;
10389;SDS011;5241;47.830;12.972;2022-07-09T03:02:54;3.80;;;2.30;;
10389;SDS011;5241;47.830;12.972;2022-07-09T03:05:19;4.63;;;2.47;;
10389;SDS011;5241;47.830;12.972;2022-07-09T03:07:45;6.07;;;2.50;;
10389;SDS011;5241;47.830;12.972;2022-07-09T03:10:10;3.23;;;2.03;;
10389;SDS011;5241;47.830;12.972;2022-07-09T03:12:37;2.50;;;2.00;;
10389;SDS011;5241;47.830;12.972;2022-07-09T03:15:02;3.03;;;2.30;;
10389;SDS011;5241;47.830;12.972;2022-07-09T03:17:28;6.07;;;2.57;;
10389;SDS011;5241;47.830;12.972;2022-07-09T03:19:54;5.83;;;2.60;;
10389;SDS011;5241;47.830;12.972;2022-07-09T03:22:20;4.07;;;2.13;;
10389;SDS011;5241;47.830;12.972;2022-07-09T03:24:45;4.70;;;2.60;;
10389;SDS011;5241;47.830;12.972;2022-07-09T03:27:11;2.90;;;2.13;;
10389;SDS011;5241;47.830;12.972;2022-07-09T03:29:36;4.03;;;2.20;;
10389;SDS011;5241;47.830;12.972;2022-07-09T03:32:02;5.03;;;2.43;;
10389;SDS011;5241;47.830;12.972;2022-07-09T03:34:28;3.83;;;1.90;;
10389;SDS011;5241;47.830;12.972;2022-07-09T03:36:54;3.10;;;2.13;;
10389;SDS011;5241;47.830;12.972;2022-07-09T03:39:19;2.80;;;2.13;;
10389;SDS011;5241;47.830;12.972;2022-07-09T03:41:45;3.10;;;2.27;;
10389;SDS011;5241;47.830;12.972;2022-07-09T03:44:11;5.47;;;2.77;;
10389;SDS011;5241;47.830;12.972;2022-07-09T03:46:36;5.10;;;2.20;;
10389;SDS011;5241;47.830;12.972;2022-07-09T03:49:02;4.43;;;2.40;;
10389;SDS011;5241;47.830;12.972;2022-07-09T03:51:27;3.90;;;2.27;;
10389;SDS011;5241;47.830;12.972;2022-07-09T03:53:53;4.90;;;2.20;;
10389;SDS011;5241;47.830;12.972;2022-07-09T03:56:18;3.50;;;2.30;;
10389;SDS011;5241;47.830;12.972;2022-07-09T03:58:45;2.70;;;2.20;;
10389;SDS011;5241;47.830;12.972;2022-07-09T04:01:10;4.90;;;2.40;;
10389;SDS011;5241;47.830;12.972;2022-07-09T04:03:36;3.13;;;2.37;;
10389;SDS011;5241;47.830;12.972;2022-07-09T04:06:02;4.57;;;2.07;;
10389;SDS011;5241;47.830;12.972;2022-07-09T04:08:28;3.90;;;2.10;;
10389;SDS011;5241;47.830;12.972;2022-07-09T04:10:54;3.23;;;2.23;;
10389;SDS011;5241;47.830;12.972;2022-07-09T04:13:19;3.30;;;2.50;;
10389;SDS011;5241;47.830;12.972;2022-07-09T04:15:45;4.77;;;2.30;;
10389;SDS011;5241;47.830;12.972;2022-07-09T04:18:10;4.27;;;2.37;;
10389;SDS011;5241;47.830;12.972;2022-07-09T04:20:37;3.27;;;2.27;;
10389;SDS011;5241;47.830;12.972;2022-07-09T04:23:03;4.87;;;2.47;;
10389;SDS011;5241;47.830;12.972;2022-07-09T04:25:28;3.50;;;2.00;;
10389;SDS011;5241;47.830;12.972;2022-07-09T04:27:54;4.47;;;2.40;;
10389;SDS011;5241;47.830;12.972;2022-07-09T04:30:19;3.43;;;2.07;;
10389;SDS011;5241;47.830;12.972;2022-07-09T04:32:45;3.40;;;2.33;;
10389;SDS011;5241;47.830;12.972;2022-07-09T04:35:10;3.23;;;2.20;;
10389;SDS011;5241;47.830;12.972;2022-07-09T04:37:36;5.93;;;2.60;;
10389;SDS011;5241;47.830;12.972;2022-07-09T04:40:01;6.50;;;2.63;;
10389;SDS011;5241;47.830;12.972;2022-07-09T04:42:28;5.60;;;2.40;;
10389;SDS011;5241;47.830;12.972;2022-07-09T04:44:53;5.27;;;2.53;;
10389;SDS011;5241;47.830;12.972;2022-07-09T04:47:19;3.13;;;2.00;;
10389;SDS011;5241;47.830;12.972;2022-07-09T04:49:44;3.63;;;2.20;;
10389;SDS011;5241;47.830;12.972;2022-07-09T04:52:10;4.37;;;2.30;;
10389;SDS011;5241;47.830;12.972;2022-07-09T04:54:35;3.10;;;2.23;;
10389;SDS011;5241;47.830;12.972;2022-07-09T04:57:01;3.63;;;2.40;;
10389;SDS011;5241;47.830;12.972;2022-07-09T04:59:27;4.77;;;2.30;;
10389;SDS011;5241;47.830;12.972;2022-07-09T05:01:52;3.23;;;2.17;;
10389;SDS011;5241;47.830;12.972;2022-07-09T05:04:18;5.93;;;2.20;;
10389;SDS011;5241;47.830;12.972;2022-07-09T05:06:43;5.43;;;2.30;;
10389;SDS011;5241;47.830;12.972;2022-07-09T05:09:09;3.30;;;2.20;;
10389;SDS011;5241;47.830;12.972;2022-07-09T05:11:34;2.63;;;2.10;;
10389;SDS011;5241;47.830;12.972;2022-07-09T05:14:00;3.93;;;1.97;;
10389;SDS011;5241;47.830;12.972;2022-07-09T05:16:25;5.07;;;2.10;;
10389;SDS011;5241;47.830;12.972;2022-07-09T05:18:51;3.67;;;2.30;;
10389;SDS011;5241;47.830;12.972;2022-07-09T05:21:16;4.07;;;2.50;;
10389;SDS011;5241;47.830;12.972;2022-07-09T05:23:42;2.77;;;2.17;;
10389;SDS011;5241;47.830;12.972;2022-07-09T05:26:07;3.67;;;2.37;;
10389;SDS011;5241;47.830;12.972;2022-07-09T05:28:33;3.40;;;2.30;;
10389;SDS011;5241;47.830;12.972;2022-07-09T05:30:58;3.43;;;2.53;;
10389;SDS011;5241;47.830;12.972;2022-07-09T05:33:24;4.50;;;2.50;;
10389;SDS011;5241;47.830;12.972;2022-07-09T05:35:49;4.13;;;2.10;;
10389;SDS011;5241;47.830;12.972;2022-07-09T05:38:15;2.97;;;1.97;;
10389;SDS011;5241;47.830;12.972;2022-07-09T05:40:41;5.13;;;2.63;;
10389;SDS011;5241;47.830;12.972;2022-07-09T05:43:06;5.43;;;2.70;;
10389;SDS011;5241;47.830;12.972;2022-07-09T05:45:32;6.20;;;2.50;;
10389;SDS011;5241;47.830;12.972;2022-07-09T05:47:57;3.80;;;2.10;;
10389;SDS011;5241;47.830;12.972;2022-07-09T05:50:23;5.27;;;2.50;;
10389;SDS011;5241;47.830;12.972;2022-07-09T05:52:48;3.17;;;1.90;;
10389;SDS011;5241;47.830;12.972;2022-07-09T05:55:14;4.10;;;2.27;;
10389;SDS011;5241;47.830;12.972;2022-07-09T05:57:40;4.87;;;2.43;;
10389;SDS011;5241;47.830;12.972;2022-07-09T06:00:05;3.27;;;2.10;;
10389;SDS011;5241;47.830;12.972;2022-07-09T06:02:32;6.60;;;2.30;;
10389;SDS011;5241;47.830;12.972;2022-07-09T06:04:58;4.17;;;2.13;;
10389;SDS011;5241;47.830;12.972;2022-07-09T06:07:23;2.47;;;2.10;;
10389;SDS011;5241;47.830;12.972;2022-07-09T06:09:49;7.33;;;2.43;;
10389;SDS011;5241;47.830;12.972;2022-07-09T06:12:14;3.30;;;2.23;;
10389;SDS011;5241;47.830;12.972;2022-07-09T06:14:40;2.87;;;2.20;;
10389;SDS011;5241;47.830;12.972;2022-07-09T06:17:05;4.40;;;2.20;;
10389;SDS011;5241;47.830;12.972;2022-07-09T06:19:34;3.60;;;2.10;;
10389;SDS011;5241;47.830;12.972;2022-07-09T06:22:00;4.77;;;2.10;;
10389;SDS011;5241;47.830;12.972;2022-07-09T06:24:27;6.73;;;2.00;;
10389;SDS011;5241;47.830;12.972;2022-07-09T06:26:52;2.20;;;2.00;;
10389;SDS011;5241;47.830;12.972;2022-07-09T06:29:18;3.43;;;2.20;;
10389;SDS011;5241;47.830;12.972;2022-07-09T06:31:44;4.47;;;2.37;;
10389;SDS011;5241;47.830;12.972;2022-07-09T06:34:10;4.07;;;2.20;;
10389;SDS011;5241;47.830;12.972;2022-07-09T06:36:37;3.83;;;1.93;;
10389;SDS011;5241;47.830;12.972;2022-07-09T06:39:02;4.00;;;2.07;;
10389;SDS011;5241;47.830;12.972;2022-07-09T06:41:46;3.87;;;2.00;;
10389;SDS011;5241;47.830;12.972;2022-07-09T06:44:12;3.33;;;2.00;;
10389;SDS011;5241;47.830;12.972;2022-07-09T06:46:38;3.87;;;1.93;;
10389;SDS011;5241;47.830;12.972;2022-07-09T06:49:03;3.47;;;2.03;;
10389;SDS011;5241;47.830;12.972;2022-07-09T06:51:29;3.07;;;2.20;;
10389;SDS011;5241;47.830;12.972;2022-07-09T06:53:55;2.90;;;2.10;;
10389;SDS011;5241;47.830;12.972;2022-07-09T06:56:20;2.93;;;1.73;;
10389;SDS011;5241;47.830;12.972;2022-07-09T06:58:47;2.97;;;1.80;;
10389;SDS011;5241;47.830;12.972;2022-07-09T07:01:13;2.53;;;1.70;;
10389;SDS011;5241;47.830;12.972;2022-07-09T07:03:38;2.20;;;1.60;;
10389;SDS011;5241;47.830;12.972;2022-07-09T07:06:04;3.27;;;2.10;;
10389;SDS011;5241;47.830;12.972;2022-07-09T07:08:30;6.20;;;1.83;;
10389;SDS011;5241;47.830;12.972;2022-07-09T07:10:55;2.93;;;1.97;;
10389;SDS011;5241;47.830;12.972;2022-07-09T07:13:21;3.33;;;2.00;;
10389;SDS011;5241;47.830;12.972;2022-07-09T07:15:46;2.50;;;1.83;;
10389;SDS011;5241;47.830;12.972;2022-07-09T07:18:14;3.43;;;2.00;;
10389;SDS011;5241;47.830;12.972;2022-07-09T07:20:40;3.53;;;1.73;;
10389;SDS011;5241;47.830;12.972;2022-07-09T07:23:05;3.00;;;1.70;;
10389;SDS011;5241;47.830;12.972;2022-07-09T07:25:31;3.63;;;1.60;;
10389;SDS011;5241;47.830;12.972;2022-07-09T07:27:56;3.07;;;1.60;;
10389;SDS011;5241;47.830;12.972;2022-07-09T07:30:23;4.47;;;1.90;;
10389;SDS011;5241;47.830;12.972;2022-07-09T07:32:48;2.70;;;1.77;;
10389;SDS011;5241;47.830;12.972;2022-07-09T07:35:14;5.27;;;1.80;;
10389;SDS011;5241;47.830;12.972;2022-07-09T07:37:39;2.67;;;1.80;;
10389;SDS011;5241;47.830;12.972;2022-07-09T07:40:05;4.10;;;1.80;;
10389;SDS011;5241;47.830;12.972;2022-07-09T07:42:31;3.93;;;1.80;;
10389;SDS011;5241;47.830;12.972;2022-07-09T07:44:57;3.47;;;1.93;;
10389;SDS011;5241;47.830;12.972;2022-07-09T07:47:22;2.57;;;1.70;;
10389;SDS011;5241;47.830;12.972;2022-07-09T07:49:48;3.33;;;1.70;;
10389;SDS011;5241;47.830;12.972;2022-07-09T07:52:13;2.50;;;1.87;;
10389;SDS011;5241;47.830;12.972;2022-07-09T07:54:39;3.60;;;1.90;;
10389;SDS011;5241;47.830;12.972;2022-07-09T07:57:04;3.93;;;1.80;;
10389;SDS011;5241;47.830;12.972;2022-07-09T07:59:30;2.63;;;1.63;;
10389;SDS011;5241;47.830;12.972;2022-07-09T08:01:56;5.70;;;1.80;;
10389;SDS011;5241;47.830;12.972;2022-07-09T08:04:21;3.50;;;1.77;;
10389;SDS011;5241;47.830;12.972;2022-07-09T08:06:47;2.87;;;2.00;;
10389;SDS011;5241;47.830;12.972;2022-07-09T08:09:13;4.80;;;1.60;;
10389;SDS011;5241;47.830;12.972;2022-07-09T08:11:39;4.53;;;1.73;;
10389;SDS011;5241;47.830;12.972;2022-07-09T08:14:05;2.47;;;1.60;;
10389;SDS011;5241;47.830;12.972;2022-07-09T08:16:32;2.73;;;1.87;;
10389;SDS011;5241;47.830;12.972;2022-07-09T08:18:57;4.47;;;2.03;;
10389;SDS011;5241;47.830;12.972;2022-07-09T08:21:23;3.20;;;1.60;;
10389;SDS011;5241;47.830;12.972;2022-07-09T08:23:48;2.83;;;1.80;;
10389;SDS011;5241;47.830;12.972;2022-07-09T08:26:19;3.33;;;1.77;;
10389;SDS011;5241;47.830;12.972;2022-07-09T08:28:51;2.60;;;1.80;;
10389;SDS011;5241;47.830;12.972;2022-07-09T08:31:17;3.83;;;2.07;;
10389;SDS011;5241;47.830;12.972;2022-07-09T08:33:44;2.67;;;1.90;;
10389;SDS011;5241;47.830;12.972;2022-07-09T08:36:10;4.10;;;2.07;;
10389;SDS011;5241;47.830;12.972;2022-07-09T08:38:36;3.87;;;1.90;;
10389;SDS011;5241;47.830;12.972;2022-07-09T08:41:03;5.33;;;2.07;;
10389;SDS011;5241;47.830;12.972;2022-07-09T08:43:34;5.40;;;1.97;;
10389;SDS011;5241;47.830;12.972;2022-07-09T08:46:00;4.23;;;1.90;;
10389;SDS011;5241;47.830;12.972;2022-07-09T08:48:26;4.47;;;1.77;;
10389;SDS011;5241;47.830;12.972;2022-07-09T08:50:53;2.10;;;1.67;;
10389;SDS011;5241;47.830;12.972;2022-07-09T08:53:20;6.47;;;2.10;;
10389;SDS011;5241;47.830;12.972;2022-07-09T08:55:46;4.63;;;2.03;;
10389;SDS011;5241;47.830;12.972;2022-07-09T08:58:12;2.33;;;1.60;;
10389;SDS011;5241;47.830;12.972;2022-07-09T09:00:41;5.43;;;1.73;;
10389;SDS011;5241;47.830;12.972;2022-07-09T09:03:07;3.57;;;1.90;;
10389;SDS011;5241;47.830;12.972;2022-07-09T09:05:32;3.63;;;1.80;;
10389;SDS011;5241;47.830;12.972;2022-07-09T09:07:58;1.93;;;1.40;;
10389;SDS011;5241;47.830;12.972;2022-07-09T09:10:25;3.10;;;1.50;;
10389;SDS011;5241;47.830;12.972;2022-07-09T09:12:56;1.50;;;1.30;;
10389;SDS011;5241;47.830;12.972;2022-07-09T09:15:22;2.57;;;1.60;;
10389;SDS011;5241;47.830;12.972;2022-07-09T09:17:48;4.27;;;1.63;;
10389;SDS011;5241;47.830;12.972;2022-07-09T09:20:14;3.40;;;1.73;;
10389;SDS011;5241;47.830;12.972;2022-07-09T09:22:50;2.30;;;1.70;;
10389;SDS011;5241;47.830;12.972;2022-07-09T09:25:19;4.60;;;1.97;;
10389;SDS011;5241;47.830;12.972;2022-07-09T09:27:58;4.20;;;1.90;;
10389;SDS011;5241;47.830;12.972;2022-07-09T09:30:25;3.53;;;1.73;;
10389;SDS011;5241;47.830;12.972;2022-07-09T09:32:58;3.53;;;1.67;;
10389;SDS011;5241;47.830;12.972;2022-07-09T09:35:28;3.43;;;1.80;;
10389;SDS011;5241;47.830;12.972;2022-07-09T09:37:57;2.90;;;1.70;;
10389;SDS011;5241;47.830;12.972;2022-07-09T09:40:23;4.33;;;2.00;;
10389;SDS011;5241;47.830;12.972;2022-07-09T09:42:50;2.93;;;1.77;;
10389;SDS011;5241;47.830;12.972;2022-07-09T09:45:17;3.60;;;1.40;;
10389;SDS011;5241;47.830;12.972;2022-07-09T09:47:47;2.83;;;1.70;;
10389;SDS011;5241;47.830;12.972;2022-07-09T09:50:19;4.63;;;1.73;;
10389;SDS011;5241;47.830;12.972;2022-07-09T09:52:46;3.20;;;1.70;;
10389;SDS011;5241;47.830;12.972;2022-07-09T09:55:13;3.07;;;1.73;;
10389;SDS011;5241;47.830;12.972;2022-07-09T09:57:40;2.33;;;1.50;;
10389;SDS011;5241;47.830;12.972;2022-07-09T10:00:06;3.70;;;1.77;;
10389;SDS011;5241;47.830;12.972;2022-07-09T10:02:33;2.63;;;1.57;;
10389;SDS011;5241;47.830;12.972;2022-07-09T10:05:02;2.43;;;1.60;;
10389;SDS011;5241;47.830;12.972;2022-07-09T10:07:28;2.37;;;1.50;;
10389;SDS011;5241;47.830;12.972;2022-07-09T10:09:57;2.47;;;1.60;;
10389;SDS011;5241;47.830;12.972;2022-07-09T10:12:30;3.50;;;1.63;;
10389;SDS011;5241;47.830;12.972;2022-07-09T10:14:58;2.80;;;1.70;;
10389;SDS011;5241;47.830;12.972;2022-07-09T10:17:24;2.83;;;1.67;;
10389;SDS011;5241;47.830;12.972;2022-07-09T10:19:54;2.30;;;1.20;;
10389;SDS011;5241;47.830;12.972;2022-07-09T10:22:35;3.20;;;1.53;;
10389;SDS011;5241;47.830;12.972;2022-07-09T10:25:02;3.63;;;1.57;;
10389;SDS011;5241;47.830;12.972;2022-07-09T10:27:40;4.20;;;2.17;;
10389;SDS011;5241;47.830;12.972;2022-07-09T10:30:28;3.33;;;1.77;;
10389;SDS011;5241;47.830;12.972;2022-07-09T10:33:05;2.00;;;1.50;;
10389;SDS011;5241;47.830;12.972;2022-07-09T10:35:38;3.23;;;1.80;;
10389;SDS011;5241;47.830;12.972;2022-07-09T10:38:08;3.37;;;1.40;;
10389;SDS011;5241;47.830;12.972;2022-07-09T10:40:38;3.90;;;1.93;;
10389;SDS011;5241;47.830;12.972;2022-07-09T10:43:04;2.40;;;1.30;;
10389;SDS011;5241;47.830;12.972;2022-07-09T10:45:35;3.60;;;1.67;;
10389;SDS011;5241;47.830;12.972;2022-07-09T10:48:03;2.60;;;1.50;;
10389;SDS011;5241;47.830;12.972;2022-07-09T10:50:30;2.37;;;1.43;;
10389;SDS011;5241;47.830;12.972;2022-07-09T10:52:58;2.97;;;1.47;;
10389;SDS011;5241;47.830;12.972;2022-07-09T10:55:28;1.63;;;1.20;;
10389;SDS011;5241;47.830;12.972;2022-07-09T10:57:56;4.40;;;1.40;;
10389;SDS011;5241;47.830;12.972;2022-07-09T11:00:25;3.43;;;1.50;;
10389;SDS011;5241;47.830;12.972;2022-07-09T11:03:00;2.50;;;1.30;;
10389;SDS011;5241;47.830;12.972;2022-07-09T11:05:30;2.77;;;1.40;;
10389;SDS011;5241;47.830;12.972;2022-07-09T11:10:23;3.03;;;1.30;;
10389;SDS011;5241;47.830;12.972;2022-07-09T11:12:50;2.97;;;1.47;;
10389;SDS011;5241;47.830;12.972;2022-07-09T11:15:19;2.90;;;1.70;;
10389;SDS011;5241;47.830;12.972;2022-07-09T11:20:44;3.13;;;1.80;;
10389;SDS011;5241;47.830;12.972;2022-07-09T11:23:11;1.50;;;1.40;;
10389;SDS011;5241;47.830;12.972;2022-07-09T11:25:38;3.57;;;1.80;;
10389;SDS011;5241;47.830;12.972;2022-07-09T11:28:04;3.13;;;1.37;;
10389;SDS011;5241;47.830;12.972;2022-07-09T11:30:30;5.27;;;1.50;;
10389;SDS011;5241;47.830;12.972;2022-07-09T11:32:57;3.10;;;1.70;;
10389;SDS011;5241;47.830;12.972;2022-07-09T11:35:32;3.03;;;1.40;;
10389;SDS011;5241;47.830;12.972;2022-07-09T11:38:05;3.50;;;1.80;;
10389;SDS011;5241;47.830;12.972;2022-07-09T11:40:32;3.60;;;1.50;;
10389;SDS011;5241;47.830;12.972;2022-07-09T11:42:58;2.17;;;1.30;;
10389;SDS011;5241;47.830;12.972;2022-07-09T11:45:25;3.23;;;1.60;;
10389;SDS011;5241;47.830;12.972;2022-07-09T11:48:02;1.83;;;1.20;;
10389;SDS011;5241;47.830;12.972;2022-07-09T11:50:29;2.70;;;1.50;;
10389;SDS011;5241;47.830;12.972;2022-07-09T11:52:55;2.70;;;1.30;;
10389;SDS011;5241;47.830;12.972;2022-07-09T11:55:27;2.60;;;1.20;;
10389;SDS011;5241;47.830;12.972;2022-07-09T11:57:56;2.63;;;1.30;;
10389;SDS011;5241;47.830;12.972;2022-07-09T12:00:23;1.90;;;1.50;;
10389;SDS011;5241;47.830;12.972;2022-07-09T12:02:52;2.33;;;1.67;;
10389;SDS011;5241;47.830;12.972;2022-07-09T12:05:25;2.50;;;1.33;;
10389;SDS011;5241;47.830;12.972;2022-07-09T12:08:05;3.27;;;1.30;;
10389;SDS011;5241;47.830;12.972;2022-07-09T12:10:33;1.80;;;1.00;;
10389;SDS011;5241;47.830;12.972;2022-07-09T12:13:00;1.90;;;1.07;;
10389;SDS011;5241;47.830;12.972;2022-07-09T12:15:27;2.07;;;1.20;;
10389;SDS011;5241;47.830;12.972;2022-07-09T12:17:54;1.63;;;1.20;;
10389;SDS011;5241;47.830;12.972;2022-07-09T12:20:25;1.57;;;1.03;;
10389;SDS011;5241;47.830;12.972;2022-07-09T12:22:52;2.17;;;1.17;;
10389;SDS011;5241;47.830;12.972;2022-07-09T12:25:18;2.00;;;1.00;;
10389;SDS011;5241;47.830;12.972;2022-07-09T12:27:44;1.47;;;1.20;;
10389;SDS011;5241;47.830;12.972;2022-07-09T12:30:11;2.13;;;1.00;;
10389;SDS011;5241;47.830;12.972;2022-07-09T12:32:37;1.10;;;0.90;;
10389;SDS011;5241;47.830;12.972;2022-07-09T12:35:03;2.20;;;1.10;;
10389;SDS011;5241;47.830;12.972;2022-07-09T12:37:29;2.23;;;1.10;;
10389;SDS011;5241;47.830;12.972;2022-07-09T12:39:55;0.97;;;0.90;;
10389;SDS011;5241;47.830;12.972;2022-07-09T12:42:20;2.87;;;1.20;;
10389;SDS011;5241;47.830;12.972;2022-07-09T12:44:46;1.60;;;1.20;;
10389;SDS011;5241;47.830;12.972;2022-07-09T12:47:12;1.10;;;1.00;;
10389;SDS011;5241;47.830;12.972;2022-07-09T12:49:38;2.07;;;1.20;;
10389;SDS011;5241;47.830;12.972;2022-07-09T12:52:04;2.23;;;0.90;;
10389;SDS011;5241;47.830;12.972;2022-07-09T12:54:29;1.47;;;1.00;;
10389;SDS011;5241;47.830;12.972;2022-07-09T12:56:55;1.13;;;0.90;;
10389;SDS011;5241;47.830;12.972;2022-07-09T12:59:21;1.37;;;0.90;;
10389;SDS011;5241;47.830;12.972;2022-07-09T13:01:47;1.87;;;1.20;;
10389;SDS011;5241;47.830;12.972;2022-07-09T13:04:12;2.07;;;1.30;;
10389;SDS011;5241;47.830;12.972;2022-07-09T13:06:39;1.73;;;1.20;;
10389;SDS011;5241;47.830;12.972;2022-07-09T13:09:05;1.30;;;1.00;;
10389;SDS011;5241;47.830;12.972;2022-07-09T13:11:33;3.00;;;1.00;;
10389;SDS011;5241;47.830;12.972;2022-07-09T13:13:58;1.50;;;1.10;;
10389;SDS011;5241;47.830;12.972;2022-07-09T13:16:24;2.53;;;1.20;;
10389;SDS011;5241;47.830;12.972;2022-07-09T13:18:50;2.80;;;1.20;;
10389;SDS011;5241;47.830;12.972;2022-07-09T13:21:17;2.50;;;1.20;;
10389;SDS011;5241;47.830;12.972;2022-07-09T13:23:43;2.03;;;1.13;;
10389;SDS011;5241;47.830;12.972;2022-07-09T13:26:08;3.50;;;1.37;;
10389;SDS011;5241;47.830;12.972;2022-07-09T13:28:34;1.43;;;0.90;;
10389;SDS011;5241;47.830;12.972;2022-07-09T13:31:00;1.70;;;0.97;;
10389;SDS011;5241;47.830;12.972;2022-07-09T13:33:25;1.03;;;0.97;;
10389;SDS011;5241;47.830;12.972;2022-07-09T13:35:51;2.93;;;1.40;;
10389;SDS011;5241;47.830;12.972;2022-07-09T13:38:16;1.83;;;1.00;;
10389;SDS011;5241;47.830;12.972;2022-07-09T13:40:42;1.97;;;1.20;;
10389;SDS011;5241;47.830;12.972;2022-07-09T13:43:08;3.37;;;1.30;;
10389;SDS011;5241;47.830;12.972;2022-07-09T13:45:33;1.87;;;1.20;;
10389;SDS011;5241;47.830;12.972;2022-07-09T13:47:59;2.13;;;1.20;;
10389;SDS011;5241;47.830;12.972;2022-07-09T13:50:24;1.83;;;1.30;;
10389;SDS011;5241;47.830;12.972;2022-07-09T13:52:50;2.27;;;1.40;;
10389;SDS011;5241;47.830;12.972;2022-07-09T13:55:15;4.67;;;1.30;;
10389;SDS011;5241;47.830;12.972;2022-07-09T13:57:41;1.73;;;1.20;;
10389;SDS011;5241;47.830;12.972;2022-07-09T14:00:07;2.50;;;1.30;;
10389;SDS011;5241;47.830;12.972;2022-07-09T14:02:34;2.20;;;1.00;;
10389;SDS011;5241;47.830;12.972;2022-07-09T14:05:02;2.47;;;1.30;;
10389;SDS011;5241;47.830;12.972;2022-07-09T14:07:28;1.43;;;1.27;;
10389;SDS011;5241;47.830;12.972;2022-07-09T14:09:54;2.07;;;1.00;;
10389;SDS011;5241;47.830;12.972;2022-07-09T14:12:20;1.93;;;1.20;;
10389;SDS011;5241;47.830;12.972;2022-07-09T14:14:48;1.80;;;1.17;;
10389;SDS011;5241;47.830;12.972;2022-07-09T14:17:13;2.97;;;1.10;;
10389;SDS011;5241;47.830;12.972;2022-07-09T14:19:39;4.20;;;1.53;;
10389;SDS011;5241;47.830;12.972;2022-07-09T14:22:04;3.13;;;1.20;;
10389;SDS011;5241;47.830;12.972;2022-07-09T14:24:31;2.70;;;1.37;;
10389;SDS011;5241;47.830;12.972;2022-07-09T14:26:56;2.13;;;1.23;;
10389;SDS011;5241;47.830;12.972;2022-07-09T14:29:22;2.17;;;1.30;;
10389;SDS011;5241;47.830;12.972;2022-07-09T14:31:47;1.20;;;1.10;;
10389;SDS011;5241;47.830;12.972;2022-07-09T14:34:13;2.57;;;1.20;;
10389;SDS011;5241;47.830;12.972;2022-07-09T14:36:38;2.23;;;1.10;;
10389;SDS011;5241;47.830;12.972;2022-07-09T14:39:04;2.63;;;1.30;;
10389;SDS011;5241;47.830;12.972;2022-07-09T14:41:30;3.07;;;1.20;;
10389;SDS011;5241;47.830;12.972;2022-07-09T14:43:56;3.83;;;1.30;;
10389;SDS011;5241;47.830;12.972;2022-07-09T14:46:22;1.83;;;1.20;;
10389;SDS011;5241;47.830;12.972;2022-07-09T14:48:47;3.10;;;1.30;;